Latest Weather Observations for Woolshed

IDQ60801

Issued at 6:32 pm EST Tuesday 28 July 2015 (issued every 30 minutes, with the page automatically refreshed every 10 minutes)

About weather observations | Map of weather stations | Latest weather observations for QLD | Other Formats
Station Details ID: 033307 Name: WOOLSHED Lat: -19.42 Lon: 146.54 Height: 556.04 m
Data from the previous 72 hours. | See also: Recent months at Woolshed
Date/Time
EST
Temp
°C
App
Temp
°C
Dew
Point
Rel
Hum
%
Delta-T
°C
Wind Press
QNH
hPa
Press
MSL
hPa
Rain
since 9 am
mm
Dir
 
Spd
km/h
Gust
km/h
Spd
kts
Gust
kts
28/06:30pm 18.3 18.8 14.0 76 2.5 N 4 6 2 3 1024.6 1023.2 0.0
28/06:00pm 19.7 20.7 13.2 66 3.8 CALM 0 0 0 0 1024.4 1023.0 0.0
28/05:30pm 20.4 21.5 13.4 64 4.1 CALM 0 2 0 1 1024.1 1022.7 0.0
28/05:00pm 20.8 21.1 13.5 63 4.3 ESE 4 7 2 4 1023.9 1022.5 0.0
28/04:30pm 20.9 20.6 13.4 62 4.4 ESE 7 13 4 7 1023.5 1022.2 0.0
28/04:00pm 20.8 20.8 13.7 64 4.2 ESE 6 17 3 9 1023.2 1021.8 0.0
28/03:30pm 20.5 20.6 13.9 66 3.9 SE 6 11 3 6 1023.2 1021.8 0.0
28/03:00pm 20.2 19.7 13.9 67 3.7 ESE 9 15 5 8 1023.3 1022.0 0.0
28/02:30pm 20.3 19.9 14.2 68 3.6 SE 9 17 5 9 1023.3 1022.0 0.0
28/02:00pm 20.3 19.6 14.2 68 3.6 ESE 11 20 6 11 1023.6 1022.3 0.0
28/01:30pm 20.6 20.6 14.3 67 3.8 ESE 7 13 4 7 1023.7 1022.4 0.0
28/01:00pm 20.6 20.3 14.5 68 3.6 SE 9 17 5 9 1024.2 1022.8 0.0
28/12:30pm 20.6 20.3 14.3 67 3.8 ESE 9 17 5 9 1024.5 1023.1 0.0
28/12:00pm 20.7 20.5 14.6 68 3.6 ESE 9 17 5 9 1024.9 1023.6 0.0
28/11:30am 20.3 20.6 14.9 71 3.3 E 7 15 4 8 1025.1 1023.8 0.0
28/11:00am 20.4 20.3 15.0 71 3.2 ESE 9 20 5 11 1025.5 1024.2 0.0
28/10:30am 19.9 19.5 15.1 74 2.9 ESE 11 20 6 11 1025.8 1024.4 0.0
28/10:00am 19.4 19.4 15.1 76 2.6 SE 9 20 5 11 1026.0 1024.6 0.0
28/09:30am 18.8 19.4 15.9 83 1.8 ESE 7 17 4 9 1025.8 1024.4 0.0
28/09:00am 18.3 18.8 15.6 84 1.6 ESE 7 15 4 8 1025.4 1024.1 0.0
28/08:30am 18.1 18.3 15.7 86 1.5 SE 9 22 5 12 1025.3 1024.0 0.0
28/08:00am 18.0 18.4 16.2 89 1.1 ESE 9 17 5 9 1024.9 1023.6 0.0
28/07:30am 17.7 18.4 16.2 91 0.9 SE 7 19 4 10 1024.8 1023.4 0.0
28/07:00am 17.5 18.4 16.7 95 0.5 SE 7 15 4 8 1024.5 1023.1 0.0
28/06:30am 17.6 19.0 17.3 98 0.2 E 6 11 3 6 1024.1 1022.7 0.0
28/06:00am 17.5 18.8 17.0 97 0.3 ENE 6 9 3 5 1023.9 1022.5 0.0
28/05:30am 17.5 19.5 16.9 96 0.4 E 2 6 1 3 1023.5 1022.2 0.0
28/05:00am 17.6 19.2 16.8 95 0.5 NE 4 7 2 4 1023.5 1022.2 0.0
28/04:30am 17.8 19.4 17.0 95 0.5 ENE 4 7 2 4 1023.7 1022.4 0.0
28/04:00am 17.6 19.6 17.0 96 0.4 ENE 2 6 1 3 1023.9 1022.5 0.0
28/03:30am 17.5 19.9 17.0 97 0.3 CALM 0 4 0 2 1023.7 1022.4 0.0
28/03:00am 17.6 20.0 17.0 96 0.4 CALM 0 4 0 2 1023.9 1022.5 0.0
28/02:30am 17.6 19.2 17.0 96 0.4 NNE 4 6 2 3 1023.7 1022.4 0.0
28/02:00am 17.7 19.8 17.1 96 0.4 NNE 2 4 1 2 1024.0 1022.6 0.0
28/01:30am 17.9 19.5 16.8 93 0.7 NE 4 7 2 4 1024.2 1022.8 0.0
28/01:00am 17.9 19.6 17.1 95 0.5 NE 4 7 2 4 1024.4 1023.0 0.0
28/12:30am 18.1 19.7 17.0 93 0.7 NE 4 7 2 4 1024.4 1023.0 0.0
28/12:00am 18.2 19.4 16.9 92 0.8 NE 6 11 3 6 1024.5 1023.1 0.0
 
Date/Time
EST
Temp
°C
App
Temp
°C
Dew
Point
Rel
Hum
%
Delta-T
°C
Wind Press
QNH
hPa
Press
MSL
hPa
Rain
since 9 am
mm
Dir
 
Spd
km/h
Gust
km/h
Spd
kts
Gust
kts
27/11:30pm 18.3 19.4 16.6 90 1.0 NE 6 9 3 5 1024.6 1023.2 0.0
27/11:00pm 18.0 19.2 16.0 88 1.2 NE 4 9 2 5 1024.7 1023.3 0.0
27/10:30pm 17.6 18.9 16.1 91 0.9 NE 4 7 2 4 1024.8 1023.4 0.0
27/10:00pm 17.6 19.2 16.8 95 0.5 NE 4 7 2 4 1024.9 1023.6 0.0
27/09:30pm 17.9 19.8 17.7 99 0.1 NE 4 7 2 4 1024.9 1023.6 0.0
27/09:00pm 18.0 19.6 17.8 99 0.1 NE 6 11 3 6 1024.8 1023.4 0.0
27/08:30pm 17.9 19.4 17.6 98 0.2 NNE 6 11 3 6 1024.6 1023.2 0.0
27/08:00pm 17.8 19.2 17.3 97 0.3 NNE 6 9 3 5 1024.3 1022.9 0.0
27/07:30pm 17.9 19.6 17.1 95 0.5 NNE 4 9 2 5 1023.9 1022.5 0.0
27/07:00pm 18.2 19.0 17.2 94 0.6 NNE 9 15 5 8 1023.5 1022.2 0.0
27/06:30pm 18.6 19.4 17.4 93 0.7 NNE 9 15 5 8 1023.2 1021.8 0.0
27/06:00pm 19.3 20.0 17.1 87 1.4 NNE 9 17 5 9 1022.6 1021.2 0.0
27/05:30pm 20.5 21.1 16.7 79 2.4 N 9 17 5 9 1022.2 1020.8 0.0
27/05:00pm 21.8 22.0 16.7 73 3.2 NNE 11 17 6 9 1021.8 1020.5 0.0
27/04:30pm 23.0 23.8 17.2 70 3.7 NNE 9 17 5 9 1021.4 1020.0 0.0
27/04:00pm 23.4 23.4 17.2 68 3.9 NNE 13 20 7 11 1021.2 1019.8 0.0
27/03:30pm 24.0 24.8 17.3 66 4.2 NNE 9 19 5 10 1021.2 1019.8 0.0
27/03:00pm 25.2 26.2 17.7 63 4.8 NNE 9 19 5 10 1021.0 1019.6 0.0
27/02:30pm 24.8 24.7 17.0 62 4.9 NNE 13 20 7 11 1021.2 1019.8 0.0
27/02:00pm 26.4 26.1 14.5 48 7.3 ESE 9 15 5 8 1021.5 1020.1 0.0
27/01:30pm 27.0 26.6 15.1 48 7.4 E 11 19 6 10 1021.7 1020.4 0.0
27/01:00pm 26.7 26.9 14.8 48 7.3 E 7 17 4 9 1022.3 1020.9 0.0
27/12:30pm 25.7 25.9 14.8 51 6.7 E 7 19 4 10 1022.9 1021.5 0.0
27/12:00pm 25.7 26.0 15.1 52 6.5 E 7 13 4 7 1023.3 1022.0 0.0
27/11:30am 25.4 26.1 16.0 56 5.9 E 7 11 4 6 1023.9 1022.5 0.0
27/11:00am 24.7 26.0 16.2 59 5.3 S 4 6 2 3 1024.4 1023.0 0.0
27/10:30am 23.5 24.3 15.8 62 4.8 E 6 7 3 4 1024.8 1023.4 0.0
27/10:00am 22.3 22.9 15.4 65 4.2 S 6 13 3 7 1025.0 1023.7 0.0
27/09:30am 21.4 22.9 16.6 74 3.0 SW 4 11 2 6 1025.2 1023.9 0.0
27/09:00am 19.4 20.4 16.4 83 1.8 SSW 6 13 3 7 1025.0 1023.7 0.0
27/08:30am 17.9 19.1 16.9 94 0.6 SSW 6 11 3 6 1024.8 1023.4 0.0
27/08:00am 17.3 18.6 17.0 98 0.2 SSW 6 9 3 5 1024.6 1023.2 0.0
27/07:30am 16.9 18.0 16.7 99 0.1 SSW 6 7 3 4 1024.4 1023.0 0.0
27/07:00am 16.6 18.8 16.4 99 0.1 CALM 0 4 0 2 1024.0 1022.6 0.0
27/06:30am 16.7 18.1 16.5 99 0.1 SSW 4 6 2 3 1023.9 1022.5 0.0
27/06:00am 16.6 18.8 16.4 99 0.1 CALM 0 6 0 3 1023.6 1022.3 0.0
27/05:30am 16.2 17.8 16.0 99 0.1 SW 2 4 1 2 1023.3 1022.0 0.0
27/05:00am 16.8 18.7 16.6 99 0.1 NNE 2 4 1 2 1022.7 1021.3 0.0
27/04:30am 16.7 18.5 16.5 99 0.1 NNE 2 4 1 2 1022.5 1021.1 0.0
27/04:00am 17.1 19.0 16.8 98 0.2 NNE 2 6 1 3 1022.7 1021.3 0.0
27/03:30am 17.4 19.8 16.9 97 0.3 CALM 0 2 0 1 1022.9 1021.5 0.0
27/03:00am 17.9 19.8 17.7 99 0.1 NE 4 7 2 4 1023.1 1021.7 0.0
27/02:30am 18.0 20.0 17.8 99 0.1 NE 4 7 2 4 1023.2 1021.8 0.0
27/02:00am 18.0 20.0 17.8 99 0.1 NE 4 9 2 5 1023.3 1022.0 0.0
27/01:30am 18.1 19.5 17.9 99 0.1 NE 7 13 4 7 1023.5 1022.2 0.0
27/01:00am 18.1 19.7 17.9 99 0.1 NNE 6 9 3 5 1023.6 1022.3 0.0
27/12:30am 18.2 19.7 18.0 99 0.1 NNE 7 13 4 7 1023.7 1022.4 0.0
27/12:00am 18.2 19.7 18.0 99 0.1 N 7 13 4 7 1023.7 1022.4 0.0
 
Date/Time
EST
Temp
°C
App
Temp
°C
Dew
Point
Rel
Hum
%
Delta-T
°C
Wind Press
QNH
hPa
Press
MSL
hPa
Rain
since 9 am
mm
Dir
 
Spd
km/h
Gust
km/h
Spd
kts
Gust
kts
26/11:30pm 18.3 20.4 18.1 99 0.1 NNE 4 6 2 3 1024.2 1022.8 0.0
26/11:00pm 18.2 20.3 18.0 99 0.1 NNE 4 9 2 5 1024.3 1022.9 0.0
26/10:30pm 18.3 20.1 18.3 100 0.0 NNE 6 13 3 7 1024.4 1023.0 0.0
26/10:00pm 18.3 20.0 18.1 99 0.1 NNE 6 13 3 7 1024.4 1023.0 0.0
26/09:30pm 18.4 20.0 18.2 99 0.1 NNE 7 11 4 6 1024.3 1022.9 0.0
26/09:00pm 18.4 20.2 18.2 99 0.1 NNE 6 11 3 6 1024.1 1022.7 0.0
26/08:30pm 18.4 20.2 18.2 99 0.1 N 6 15 3 8 1023.9 1022.5 0.0
26/08:00pm 18.4 19.9 18.1 98 0.2 NNE 7 13 4 7 1023.6 1022.3 0.0
26/07:30pm 18.6 20.1 18.1 97 0.3 NNE 7 13 4 7 1023.2 1021.8 0.0
26/07:00pm 18.7 19.9 18.2 97 0.3 NNE 9 17 5 9 1022.9 1021.5 0.0
26/06:30pm 18.8 20.1 17.6 93 0.8 NNE 7 15 4 8 1022.4 1021.0 0.0
26/06:00pm 19.5 20.1 16.9 85 1.6 NNE 9 17 5 9 1021.8 1020.5 0.0
26/05:30pm 20.4 21.0 16.8 80 2.2 NNE 9 17 5 9 1021.3 1019.9 0.0
26/05:00pm 21.5 22.1 16.9 75 2.9 NNE 9 17 5 9 1020.9 1019.5 0.0
26/04:30pm 22.6 22.9 17.1 71 3.5 NNE 11 15 6 8 1020.4 1019.0 0.0
26/04:00pm 23.4 23.9 17.4 69 3.8 NNE 11 19 6 10 1020.2 1018.8 0.0
26/03:30pm 23.8 24.5 17.1 66 4.2 N 9 19 5 10 1020.1 1018.6 0.0
26/03:00pm 25.2 25.7 17.4 62 5.0 N 11 24 6 13 1020.2 1018.8 0.0
26/02:30pm 25.5 25.2 15.5 54 6.2 NNE 11 20 6 11 1020.3 1018.9 0.0
26/02:00pm 26.5 27.4 16.1 52 6.5 N 6 17 3 9 1020.5 1019.1 0.0
26/01:30pm 25.9 26.5 15.9 54 6.2 N 7 17 4 9 1020.7 1019.3 0.0
26/01:00pm 25.7 26.6 16.0 55 6.1 ENE 6 13 3 7 1021.1 1019.7 0.0
26/12:30pm 24.9 25.5 15.8 57 5.7 ENE 7 13 4 7 1021.6 1020.2 0.0
26/12:00pm 24.4 25.1 15.6 58 5.4 ENE 6 13 3 7 1022.2 1020.8 0.0
26/11:30am 24.4 25.4 16.4 61 5.0 NE 6 9 3 5 1022.9 1021.5 0.0
26/11:00am 23.4 24.3 16.2 64 4.5 NNE 6 9 3 5 1023.4 1022.1 0.0
26/10:30am 21.7 22.6 16.6 73 3.2 E 7 13 4 7 1023.9 1022.5 0.0
26/10:00am 20.4 20.6 16.8 80 2.2 ENE 11 20 6 11 1024.1 1022.7 0.0
26/09:30am 20.9 21.6 17.1 79 2.4 NNE 9 20 5 11 1024.2 1022.8 0.0
26/09:00am 19.6 20.9 17.0 85 1.6 NE 6 15 3 8 1024.0 1022.6 0.0
26/08:30am 19.1 20.5 17.4 90 1.1 ENE 6 9 3 5 1023.7 1022.4 0.0
26/08:00am 18.6 20.5 17.6 94 0.6 ENE 4 9 2 5 1023.5 1022.2 0.0
26/07:30am 18.1 20.4 17.6 97 0.3 NE 2 6 1 3 1023.3 1022.0 0.0
26/07:00am 17.9 20.1 17.4 97 0.3 ENE 2 6 1 3 1023.1 1021.7 0.0
26/06:30am 17.9 19.8 17.6 98 0.2 NE 4 7 2 4 1022.6 1021.2 0.0
26/06:00am 17.7 19.1 17.4 98 0.2 ENE 6 11 3 6 1022.4 1021.0 0.0
26/05:30am 17.9 19.4 17.7 99 0.1 ENE 6 11 3 6 1022.2 1020.8 0.0
26/05:00am 17.9 19.3 17.7 99 0.1 NE 7 17 4 9 1022.1 1020.7 0.0
26/04:30am 17.8 19.1 17.6 99 0.1 NE 7 15 4 8 1021.8 1020.5 0.0
26/04:00am 17.6 19.4 17.4 99 0.1 ENE 4 9 2 5 1021.8 1020.5 0.0
26/03:30am 17.6 19.0 17.4 99 0.1 ENE 6 7 3 4 1021.6 1020.2 0.0
26/03:00am 17.6 19.0 17.3 98 0.2 NE 6 9 3 5 1022.1 1020.7 0.0
26/02:30am 17.9 19.3 17.7 99 0.1 ENE 7 17 4 9 1022.4 1021.0 0.0
26/02:00am 18.0 19.0 17.8 99 0.1 NE 9 17 5 9 1022.6 1021.2 0.0
26/01:30am 18.0 19.0 17.8 99 0.1 NE 9 17 5 9 1022.9 1021.5 0.0
26/01:00am 18.1 18.8 17.9 99 0.1 NE 11 19 6 10 1023.2 1021.8 0.0
26/12:30am 18.2 19.3 18.0 99 0.1 NE 9 19 5 10 1023.3 1022.0 0.0
26/12:00am 18.2 18.9 18.0 99 0.1 NE 11 20 6 11 1023.4 1022.1 0.0
 
Date/Time
EST
Temp
°C
App
Temp
°C
Dew
Point
Rel
Hum
%
Delta-T
°C
Wind Press
QNH
hPa
Press
MSL
hPa
Rain
since 9 am
mm
Dir
 
Spd
km/h
Gust
km/h
Spd
kts
Gust
kts
25/11:30pm 18.2 18.9 18.0 99 0.1 NE 11 19 6 10 1023.5 1022.2 0.0
25/11:00pm 18.0 18.6 17.8 99 0.1 NE 11 19 6 10 1023.7 1022.4 0.0
25/10:30pm 18.1 19.2 17.9 99 0.1 NNE 9 20 5 11 1023.9 1022.5 0.0
25/10:00pm 18.2 19.7 18.0 99 0.1 NE 7 17 4 9 1023.9 1022.5 0.0
25/09:30pm 18.3 19.8 18.1 99 0.1 NE 7 13 4 7 1023.6 1022.3 0.0
25/09:00pm 18.3 19.8 18.1 99 0.1 NNE 7 15 4 8 1023.6 1022.3 0.0
25/08:30pm 18.3 19.4 18.0 98 0.2 NE 9 17 5 9 1023.2 1021.8 0.0
25/08:00pm 18.6 20.2 18.3 98 0.2 NNE 7 15 4 8 1022.9 1021.5 0.0
25/07:30pm 18.7 20.4 18.4 98 0.2 NNE 7 15 4 8 1022.5 1021.1 0.0
25/07:00pm 18.8 20.3 18.0 95 0.5 NNE 7 13 4 7 1022.0 1020.6 0.0

Other Formats:

Comma delimited format used in spreadsheet applications
http://www.bom.gov.au/fwo/IDQ60801/IDQ60801.95293.axf

JavaScript Object Notation format (JSON) in row-major order
http://www.bom.gov.au/fwo/IDQ60801/IDQ60801.95293.json